createdAt,value
2023-07-03T00:01:27.529Z,7.00
2023-07-03T00:03:55.021Z,6.60
2023-07-03T00:06:23.073Z,7.30
2023-07-03T00:08:50.796Z,6.70
2023-07-03T00:11:17.530Z,6.70
2023-07-03T00:13:44.302Z,6.80
2023-07-03T00:16:11.356Z,7.30
2023-07-03T00:18:38.277Z,7.50
2023-07-03T00:21:05.510Z,7.70
2023-07-03T00:23:32.312Z,8.30
2023-07-03T00:25:59.267Z,8.00
2023-07-03T00:28:26.466Z,7.80
2023-07-03T00:30:53.719Z,7.40
2023-07-03T00:33:20.407Z,6.50
2023-07-03T00:35:47.036Z,7.50
2023-07-03T00:38:13.688Z,7.80
2023-07-03T00:40:40.242Z,7.20
2023-07-03T00:43:08.144Z,7.60
2023-07-03T00:45:35.112Z,7.90
2023-07-03T00:48:02.089Z,8.00
2023-07-03T00:50:29.125Z,8.40
2023-07-03T00:52:59.532Z,8.00
2023-07-03T00:55:26.154Z,7.30
2023-07-03T00:57:53.079Z,6.50
2023-07-03T01:00:21.575Z,6.40
2023-07-03T01:03:18.469Z,6.40
2023-07-03T01:05:47.610Z,5.90
2023-07-03T01:08:14.582Z,6.00
2023-07-03T01:10:41.392Z,6.90
2023-07-03T01:13:11.082Z,7.30
2023-07-03T01:15:41.163Z,6.30
2023-07-03T01:18:08.748Z,6.50
2023-07-03T01:20:59.195Z,6.50
2023-07-03T01:23:56.104Z,6.80
2023-07-03T01:26:23.019Z,6.10
2023-07-03T01:28:53.826Z,6.50
2023-07-03T01:31:20.523Z,6.50
2023-07-03T01:33:47.586Z,5.90
2023-07-03T01:36:14.606Z,6.80
2023-07-03T01:38:44.285Z,7.10
2023-07-03T01:41:13.045Z,6.80
2023-07-03T01:43:40.740Z,6.40
2023-07-03T01:46:08.751Z,6.90
2023-07-03T01:48:35.791Z,7.10
2023-07-03T01:51:04.201Z,7.20
2023-07-03T01:53:33.297Z,7.00
2023-07-03T01:56:12.831Z,6.90
2023-07-03T01:58:50.148Z,7.10
2023-07-03T02:01:27.823Z,7.40
2023-07-03T02:04:05.381Z,6.80
2023-07-03T02:06:38.705Z,7.00
2023-07-03T02:09:08.621Z,7.80
2023-07-03T02:11:36.293Z,8.00
2023-07-03T02:14:03.641Z,7.30
2023-07-03T02:16:30.933Z,7.00
2023-07-03T02:18:59.352Z,8.30
2023-07-03T02:21:27.950Z,7.10
2023-07-03T02:23:55.711Z,8.40
2023-07-03T02:26:22.481Z,9.20
2023-07-03T02:28:49.121Z,8.40
2023-07-03T02:31:15.789Z,8.80
2023-07-03T02:33:42.574Z,9.60
2023-07-03T02:36:09.145Z,8.30
2023-07-03T02:38:36.221Z,8.30
2023-07-03T02:41:03.823Z,8.40
2023-07-03T02:43:31.864Z,7.70
2023-07-03T02:46:03.560Z,9.50
2023-07-03T02:48:30.702Z,11.10
2023-07-03T02:50:57.802Z,10.30
2023-07-03T02:53:25.421Z,9.80
2023-07-03T02:55:55.838Z,11.20
2023-07-03T02:58:22.797Z,11.10
2023-07-03T03:00:49.506Z,12.00
2023-07-03T03:03:16.770Z,11.90
2023-07-03T03:05:43.964Z,11.90
2023-07-03T03:08:12.007Z,11.80
2023-07-03T03:10:38.863Z,11.70
2023-07-03T03:13:05.770Z,12.00
2023-07-03T03:15:35.099Z,11.50
2023-07-03T03:18:02.642Z,11.60
2023-07-03T03:20:29.753Z,11.20
2023-07-03T03:22:57.072Z,11.30
2023-07-03T03:25:24.033Z,12.30
2023-07-03T03:27:50.962Z,12.70
2023-07-03T03:30:17.626Z,11.90
2023-07-03T03:32:45.064Z,12.50
2023-07-03T03:35:12.016Z,12.00
2023-07-03T03:37:39.301Z,12.40
2023-07-03T03:40:09.327Z,11.40
2023-07-03T03:42:36.657Z,12.00
2023-07-03T03:45:04.757Z,11.40
2023-07-03T03:47:31.898Z,12.70
2023-07-03T03:49:59.144Z,12.90
2023-07-03T03:52:26.605Z,11.50
2023-07-03T03:54:53.636Z,12.00
2023-07-03T03:57:20.674Z,12.10
2023-07-03T03:59:47.651Z,12.00
2023-07-03T04:02:14.689Z,11.80
2023-07-03T04:04:42.552Z,12.10
2023-07-03T04:07:09.382Z,13.40
2023-07-03T04:09:36.541Z,12.70
2023-07-03T04:12:04.099Z,12.40
2023-07-03T04:14:31.285Z,12.90
2023-07-03T04:16:59.655Z,11.80
2023-07-03T04:19:28.828Z,12.40
2023-07-03T04:21:55.501Z,12.80
2023-07-03T04:24:22.372Z,13.10
2023-07-03T04:26:49.048Z,13.00
2023-07-03T04:29:16.027Z,12.70
2023-07-03T04:31:42.877Z,11.90
2023-07-03T04:34:09.814Z,11.20
2023-07-03T04:36:36.698Z,11.50
2023-07-03T04:39:03.412Z,12.20
2023-07-03T04:41:30.038Z,13.20
2023-07-03T04:43:58.771Z,13.10
2023-07-03T04:46:27.264Z,12.40
2023-07-03T04:49:00.173Z,11.90
2023-07-03T04:51:31.422Z,11.70
2023-07-03T04:54:01.364Z,12.20
2023-07-03T04:56:31.976Z,11.70
2023-07-03T04:58:58.710Z,12.30
2023-07-03T05:01:25.846Z,11.70
2023-07-03T05:03:52.976Z,12.40
2023-07-03T05:06:20.269Z,10.80
2023-07-03T05:08:50.085Z,11.00
2023-07-03T05:11:17.199Z,11.10
2023-07-03T05:13:46.384Z,11.10
2023-07-03T05:16:14.460Z,11.20
2023-07-03T05:18:41.075Z,10.70
2023-07-03T05:21:07.787Z,9.60
2023-07-03T05:23:35.488Z,9.90
2023-07-03T05:26:02.486Z,9.90
2023-07-03T05:28:30.577Z,10.80
2023-07-03T05:30:58.162Z,10.40
2023-07-03T05:33:28.715Z,9.60
2023-07-03T05:35:59.061Z,9.70
2023-07-03T05:38:26.058Z,9.80
2023-07-03T05:40:53.873Z,9.50
2023-07-03T05:43:20.791Z,9.60
2023-07-03T05:45:48.472Z,9.80
2023-07-03T05:48:15.473Z,9.40
2023-07-03T05:50:42.265Z,10.00
2023-07-03T05:53:10.682Z,8.60
2023-07-03T05:55:37.716Z,9.30
2023-07-03T05:58:04.396Z,9.10
2023-07-03T06:00:32.866Z,9.10
2023-07-03T06:03:02.760Z,9.20
2023-07-03T06:17:08.746Z,9.20
2023-07-03T06:19:36.420Z,9.10
2023-07-03T06:22:03.935Z,8.60
2023-07-03T06:24:31.560Z,8.30
2023-07-03T06:26:59.432Z,8.70
2023-07-03T06:29:27.068Z,8.60
2023-07-03T06:31:54.726Z,8.10
2023-07-03T06:34:22.300Z,6.90
2023-07-03T06:36:50.486Z,7.60
2023-07-03T06:39:18.327Z,8.20
2023-07-03T06:41:46.102Z,8.10
2023-07-03T06:44:15.524Z,7.40
2023-07-03T06:46:43.334Z,7.70
2023-07-03T06:49:10.918Z,8.00
2023-07-03T06:51:38.424Z,7.70
2023-07-03T06:54:06.059Z,7.80
2023-07-03T06:56:33.585Z,7.20
2023-07-03T06:59:01.019Z,9.00
2023-07-03T07:01:31.566Z,8.00
2023-07-03T07:03:59.372Z,7.20
2023-07-03T07:06:28.566Z,7.40
2023-07-03T07:08:56.088Z,6.90
2023-07-03T07:11:26.071Z,6.50
2023-07-03T07:13:53.903Z,6.80
2023-07-03T07:16:26.128Z,6.30
2023-07-03T07:18:57.742Z,6.50
2023-07-03T07:21:25.719Z,7.10
2023-07-03T07:23:58.325Z,6.60
2023-07-03T07:26:29.026Z,6.50
2023-07-03T07:28:56.741Z,5.50
2023-07-03T07:31:25.860Z,5.70
2023-07-03T07:33:53.994Z,5.30
2023-07-03T07:36:24.196Z,5.20
2023-07-03T07:38:55.181Z,5.30
2023-07-03T07:41:26.765Z,5.10
2023-07-03T07:43:55.064Z,5.80
2023-07-03T07:46:26.718Z,5.10
2023-07-03T07:48:54.245Z,5.00
2023-07-03T07:51:22.027Z,5.30
2023-07-03T07:53:50.034Z,5.10
2023-07-03T07:56:17.704Z,3.70
2023-07-03T07:58:45.263Z,3.70
2023-07-03T08:01:16.058Z,4.30
2023-07-03T08:06:42.716Z,5.00
2023-07-03T08:09:11.147Z,4.10
2023-07-03T08:11:43.044Z,4.70
2023-07-03T08:14:10.507Z,5.60
2023-07-03T08:16:38.044Z,4.90
2023-07-03T08:19:05.496Z,4.50
2023-07-03T08:21:32.927Z,3.80
2023-07-03T08:24:00.415Z,4.10
2023-07-03T08:26:28.062Z,4.90
2023-07-03T08:32:16.553Z,5.60
2023-07-03T08:37:07.900Z,5.50
2023-07-03T08:37:32.083Z,5.40
2023-07-03T08:40:00.011Z,5.50
2023-07-03T08:42:41.830Z,5.30
2023-07-03T08:45:10.877Z,5.00
2023-07-03T08:47:38.576Z,5.30
2023-07-03T08:50:09.648Z,4.80
2023-07-03T08:52:40.758Z,5.50
2023-07-03T08:55:09.137Z,5.40
2023-07-03T08:57:38.744Z,5.20
2023-07-03T09:00:13.808Z,4.10
2023-07-03T09:02:55.889Z,4.10
2023-07-03T09:05:38.472Z,4.80
2023-07-03T09:08:07.054Z,4.80
2023-07-03T09:10:38.644Z,4.80
2023-07-03T09:16:08.064Z,4.80
2023-07-03T09:18:51.962Z,5.20
2023-07-03T09:21:20.651Z,5.30
2023-07-03T09:24:15.421Z,5.00
2023-07-03T09:26:45.795Z,6.70
2023-07-03T09:29:13.985Z,6.30
2023-07-03T09:31:42.292Z,7.00
2023-07-03T09:34:09.865Z,5.60
2023-07-03T09:36:38.950Z,6.20
2023-07-03T09:39:11.613Z,6.20
2023-07-03T09:41:39.573Z,6.00
2023-07-03T09:44:13.490Z,6.10
2023-07-03T09:46:41.478Z,5.80
2023-07-03T10:12:05.964Z,4.90
2023-07-03T10:14:49.061Z,5.20
2023-07-03T10:17:17.416Z,5.30
2023-07-03T10:19:47.263Z,4.60
2023-07-03T10:22:14.817Z,4.70
2023-07-03T10:24:42.366Z,4.20
2023-07-03T10:27:10.050Z,4.10
2023-07-03T10:29:40.880Z,3.90
2023-07-03T10:32:14.440Z,4.00
2023-07-03T10:34:55.744Z,3.90
2023-07-03T10:37:23.775Z,3.80
2023-07-03T10:39:57.013Z,3.70
2023-07-03T10:42:34.011Z,3.70
2023-07-03T10:45:10.858Z,3.70
2023-07-03T10:47:41.380Z,3.60
2023-07-03T10:50:08.928Z,3.40
2023-07-03T10:52:57.522Z,3.40
2023-07-03T10:55:34.930Z,3.30
2023-07-03T10:58:19.672Z,3.30
2023-07-03T11:01:24.509Z,5.60
2023-07-03T11:04:10.585Z,2.70
2023-07-03T11:06:48.115Z,3.10
2023-07-03T11:09:52.179Z,2.70
2023-07-03T11:13:00.087Z,2.60
2023-07-03T11:15:31.413Z,2.60
2023-07-03T11:24:08.629Z,2.80
2023-07-03T11:29:11.710Z,2.70
2023-07-03T11:31:44.398Z,2.80
2023-07-03T11:37:02.059Z,3.10
2023-07-03T11:44:35.365Z,2.60
2023-07-03T11:47:08.968Z,2.50
2023-07-03T11:50:04.127Z,2.70
2023-07-03T11:52:38.859Z,2.80
2023-07-03T11:55:11.742Z,2.50
2023-07-03T11:57:41.772Z,2.80
2023-07-03T12:00:30.268Z,2.30
2023-07-03T12:03:05.967Z,2.40
2023-07-03T12:05:45.898Z,2.10
2023-07-03T12:08:33.900Z,2.40
2023-07-03T12:11:01.699Z,2.10
2023-07-03T12:13:49.100Z,2.40
2023-07-03T12:16:32.544Z,1.90
2023-07-03T12:19:10.965Z,1.90
2023-07-03T12:21:44.206Z,2.10
2023-07-03T12:24:27.800Z,1.90
2023-07-03T12:27:05.903Z,2.00
2023-07-03T12:29:34.891Z,1.90
2023-07-03T12:32:10.251Z,1.70
2023-07-03T12:34:39.598Z,2.00
2023-07-03T12:37:10.174Z,2.20
2023-07-03T12:39:37.632Z,1.80
2023-07-03T12:42:09.859Z,2.20
2023-07-03T12:44:37.862Z,2.10
2023-07-03T12:47:15.832Z,1.90
2023-07-03T12:49:57.248Z,2.00
2023-07-03T12:52:25.909Z,2.10
2023-07-03T12:55:01.976Z,1.80
2023-07-03T12:57:41.721Z,1.80
2023-07-03T13:00:16.386Z,1.70
2023-07-03T13:02:44.185Z,2.00
2023-07-03T13:05:14.019Z,2.10
2023-07-03T13:07:43.356Z,2.00
2023-07-03T13:10:13.739Z,2.00
2023-07-03T13:12:41.137Z,1.90
2023-07-03T13:15:14.469Z,2.10
2023-07-03T13:17:44.288Z,2.00
2023-07-03T13:20:28.194Z,2.10
2023-07-03T13:23:00.063Z,2.00
2023-07-03T13:25:43.243Z,2.00
2023-07-03T13:28:12.801Z,2.00
2023-07-03T13:30:41.545Z,2.40
2023-07-03T13:33:13.377Z,1.90
2023-07-03T13:35:48.587Z,2.10
2023-07-03T13:38:33.518Z,2.20
2023-07-03T13:41:04.729Z,1.60
2023-07-03T13:43:32.768Z,1.90
2023-07-03T13:46:00.404Z,2.10
2023-07-03T13:48:28.214Z,2.00
2023-07-03T13:50:56.328Z,2.20
2023-07-03T13:53:25.433Z,2.50
2023-07-03T13:55:53.235Z,2.20
2023-07-03T13:58:20.822Z,1.90
2023-07-03T14:00:48.286Z,1.90
2023-07-03T14:03:17.711Z,2.10
2023-07-03T14:05:45.320Z,2.00
2023-07-03T14:08:12.793Z,2.30
2023-07-03T14:10:40.299Z,1.90
2023-07-03T14:13:07.900Z,2.00
2023-07-03T14:15:36.211Z,2.30
2023-07-03T14:18:04.084Z,2.00
2023-07-03T14:20:31.689Z,2.50
2023-07-03T14:22:59.392Z,2.70
2023-07-03T14:25:27.165Z,2.20
2023-07-03T14:27:54.548Z,2.20
2023-07-03T14:30:22.055Z,2.10
2023-07-03T14:32:55.894Z,2.20
2023-07-03T14:35:24.711Z,2.20
2023-07-03T14:37:52.186Z,2.10
2023-07-03T14:40:19.957Z,2.50
2023-07-03T14:42:47.440Z,2.30
2023-07-03T14:45:14.874Z,2.00
2023-07-03T14:47:42.630Z,2.00
2023-07-03T14:50:10.748Z,2.10
2023-07-03T14:52:39.195Z,2.20
2023-07-03T14:55:07.062Z,2.10
2023-07-03T14:57:34.569Z,2.50
2023-07-03T15:00:01.990Z,2.20
2023-07-03T15:02:29.537Z,2.20
2023-07-03T15:04:58.081Z,2.10
2023-07-03T15:07:25.507Z,2.10
2023-07-03T15:09:53.025Z,2.80
2023-07-03T15:12:20.672Z,2.40
2023-07-03T15:14:48.313Z,2.10
2023-07-03T15:17:15.814Z,2.50
2023-07-03T15:19:43.279Z,2.00
2023-07-03T15:22:11.052Z,1.90
2023-07-03T15:24:38.525Z,2.10
2023-07-03T15:27:07.084Z,1.90
2023-07-03T15:29:35.645Z,2.30
2023-07-03T15:32:03.029Z,2.30
2023-07-03T15:34:30.725Z,2.50
2023-07-03T15:36:58.596Z,2.30
2023-07-03T15:39:26.214Z,2.10
2023-07-03T15:41:53.712Z,2.00
2023-07-03T15:44:21.181Z,2.20
2023-07-03T15:46:48.743Z,1.90
2023-07-03T15:49:16.285Z,2.20
2023-07-03T15:51:44.227Z,2.10
2023-07-03T15:54:11.684Z,2.70
2023-07-03T15:56:39.144Z,1.90
2023-07-03T15:59:07.288Z,2.10
2023-07-03T16:01:34.875Z,2.60
2023-07-03T16:04:02.559Z,2.30
2023-07-03T16:06:34.087Z,2.20
2023-07-03T16:09:02.571Z,2.30
2023-07-03T16:11:30.190Z,2.20
2023-07-03T16:14:00.753Z,2.40
2023-07-03T16:16:28.722Z,2.40
2023-07-03T16:18:58.954Z,2.50
2023-07-03T16:21:27.772Z,2.00
2023-07-03T16:23:57.012Z,2.30
2023-07-03T16:26:25.825Z,2.50
2023-07-03T16:28:53.394Z,2.20
2023-07-03T16:31:22.277Z,2.00
2023-07-03T16:33:51.044Z,2.80
2023-07-03T16:36:20.543Z,3.00
2023-07-03T16:38:52.292Z,2.60
2023-07-03T16:41:20.136Z,2.30
2023-07-03T16:43:48.208Z,2.70
2023-07-03T16:46:19.912Z,2.60
2023-07-03T16:48:48.365Z,2.70
2023-07-03T16:51:15.973Z,1.90
2023-07-03T16:53:43.392Z,2.30
2023-07-03T16:56:12.757Z,2.40
2023-07-03T16:58:40.965Z,2.70
2023-07-03T17:01:10.319Z,2.40
2023-07-03T17:03:38.115Z,2.40
2023-07-03T17:06:08.610Z,2.40
2023-07-03T17:08:36.002Z,2.40
2023-07-03T17:11:03.778Z,3.10
2023-07-03T17:13:31.497Z,2.40
2023-07-03T17:15:58.906Z,2.30
2023-07-03T17:18:26.349Z,2.50
2023-07-03T17:20:53.783Z,2.50
2023-07-03T17:23:21.341Z,2.60
2023-07-03T17:25:50.482Z,2.40
2023-07-03T17:28:18.477Z,2.20
2023-07-03T17:30:46.686Z,2.70
2023-07-03T17:33:14.190Z,2.30
2023-07-03T17:35:44.259Z,2.70
2023-07-03T17:38:12.225Z,2.90
2023-07-03T17:40:40.129Z,2.70
2023-07-03T17:43:07.591Z,2.60
2023-07-03T17:45:35.716Z,3.00
2023-07-03T17:48:03.419Z,2.60
2023-07-03T17:50:30.908Z,3.10
2023-07-03T17:52:58.377Z,3.30
2023-07-03T17:55:26.476Z,3.10
2023-07-03T17:57:56.062Z,3.10
2023-07-03T18:00:23.620Z,2.70
2023-07-03T18:02:51.153Z,7.20
2023-07-03T18:05:18.657Z,2.80
2023-07-03T18:07:46.070Z,3.60
2023-07-03T18:10:13.641Z,3.50
2023-07-03T18:12:41.176Z,3.50
2023-07-03T18:15:10.618Z,3.10
2023-07-03T18:17:38.099Z,3.70
2023-07-03T18:20:06.020Z,3.80
2023-07-03T18:22:34.249Z,3.40
2023-07-03T18:25:02.970Z,4.50
2023-07-03T18:27:30.577Z,3.50
2023-07-03T18:29:58.066Z,3.80
2023-07-03T18:32:25.522Z,3.60
2023-07-03T18:34:53.139Z,3.80
2023-07-03T18:37:22.074Z,4.40
2023-07-03T18:39:50.390Z,3.80
2023-07-03T18:42:18.773Z,4.40
2023-07-03T18:44:46.426Z,3.90
2023-07-03T18:47:14.007Z,4.40
2023-07-03T18:49:41.493Z,4.80
2023-07-03T18:52:08.847Z,4.70
2023-07-03T18:54:36.228Z,4.50
2023-07-03T18:57:03.959Z,5.80
2023-07-03T18:59:31.485Z,4.90
2023-07-03T19:02:05.216Z,5.00
2023-07-03T19:04:33.640Z,4.80
2023-07-03T19:07:01.114Z,4.80
2023-07-03T19:09:28.517Z,5.00
2023-07-03T19:11:56.164Z,5.00
2023-07-03T19:14:23.732Z,5.40
2023-07-03T19:16:51.228Z,5.10
2023-07-03T19:19:18.899Z,5.80
2023-07-03T19:21:47.179Z,5.00
2023-07-03T19:24:14.764Z,4.70
2023-07-03T19:26:42.226Z,5.50
2023-07-03T19:29:09.878Z,5.30
2023-07-03T19:31:38.306Z,5.70
2023-07-03T19:34:05.888Z,5.60
2023-07-03T19:36:33.299Z,5.30
2023-07-03T19:39:00.862Z,4.80
2023-07-03T19:41:30.174Z,5.40
2023-07-03T19:43:57.949Z,4.70
2023-07-03T19:46:25.927Z,5.30
2023-07-03T19:48:56.055Z,5.40
2023-07-03T19:51:23.577Z,5.80
2023-07-03T19:53:50.949Z,6.90
2023-07-03T19:56:20.884Z,6.00
2023-07-03T19:58:51.357Z,8.10
2023-07-03T20:01:18.956Z,6.10
2023-07-03T20:03:46.693Z,6.00
2023-07-03T20:06:18.491Z,6.20
2023-07-03T20:08:50.255Z,6.70
2023-07-03T20:13:46.672Z,6.50
2023-07-03T20:16:14.465Z,6.80
2023-07-03T20:18:44.868Z,6.90
2023-07-03T20:21:12.369Z,7.00
2023-07-03T20:23:39.958Z,6.30
2023-07-03T20:26:07.473Z,5.90
2023-07-03T20:28:36.152Z,6.40
2023-07-03T20:31:03.577Z,6.30
2023-07-03T20:33:31.033Z,6.20
2023-07-03T20:36:00.148Z,6.60
2023-07-03T20:38:27.600Z,6.50
2023-07-03T20:40:59.233Z,7.40
2023-07-03T20:46:15.363Z,8.90
2023-07-03T20:48:43.188Z,9.10
2023-07-03T20:51:13.831Z,7.50
2023-07-03T20:53:54.042Z,7.30
2023-07-03T20:56:25.141Z,7.60
2023-07-03T21:01:30.206Z,7.00
2023-07-03T21:04:01.247Z,6.70
2023-07-03T21:06:33.313Z,6.90
2023-07-03T21:09:00.957Z,6.40
2023-07-03T21:11:29.578Z,6.90
2023-07-03T21:13:59.192Z,6.90
2023-07-03T21:16:26.993Z,6.40
2023-07-03T21:18:54.528Z,6.80
2023-07-03T21:21:24.156Z,7.20
2023-07-03T21:23:51.784Z,6.60
2023-07-03T21:26:20.696Z,6.40
2023-07-03T21:28:48.907Z,6.70
2023-07-03T21:31:18.568Z,6.40
2023-07-03T21:33:46.468Z,6.60
2023-07-03T21:36:14.639Z,7.10
2023-07-03T21:38:42.766Z,7.70
2023-07-03T21:41:10.982Z,7.10
2023-07-03T21:43:38.721Z,7.40
2023-07-03T21:46:09.403Z,6.80
2023-07-03T21:48:37.483Z,7.40
2023-07-03T21:51:05.437Z,7.00
2023-07-03T21:53:34.699Z,7.80
2023-07-03T21:56:06.893Z,7.30
2023-07-03T21:58:34.529Z,7.40
2023-07-03T22:01:02.679Z,8.10
2023-07-03T22:03:30.530Z,7.10
2023-07-03T22:05:58.070Z,8.10
2023-07-03T22:08:25.660Z,7.30
2023-07-03T22:10:53.544Z,7.00
2023-07-03T22:13:21.079Z,7.20
2023-07-03T22:15:48.586Z,7.60
2023-07-03T22:18:16.225Z,7.60
2023-07-03T22:20:43.944Z,7.20
2023-07-03T22:23:12.937Z,7.50
2023-07-03T22:25:40.406Z,8.10
2023-07-03T22:28:08.123Z,6.90
2023-07-03T22:30:35.469Z,6.90
2023-07-03T22:33:03.159Z,7.00
2023-07-03T22:35:30.706Z,6.90
2023-07-03T22:37:58.125Z,7.70
2023-07-03T22:40:25.774Z,7.70
2023-07-03T22:42:53.221Z,7.10
2023-07-03T22:45:21.146Z,7.70
2023-07-03T22:47:48.573Z,7.20
2023-07-03T22:50:16.154Z,8.50
2023-07-03T22:52:43.524Z,7.70
2023-07-03T22:55:11.032Z,7.90
2023-07-03T22:57:38.410Z,7.60
2023-07-03T23:00:12.079Z,7.40
2023-07-03T23:02:39.990Z,7.70
2023-07-03T23:05:07.849Z,7.00
2023-07-03T23:07:35.400Z,7.50
2023-07-03T23:10:03.621Z,7.50
2023-07-03T23:12:31.097Z,7.10
2023-07-03T23:14:58.482Z,7.60
2023-07-03T23:17:32.453Z,8.70
2023-07-03T23:20:00.873Z,7.50
2023-07-03T23:22:28.373Z,7.30
2023-07-03T23:24:56.174Z,7.00
2023-07-03T23:27:24.291Z,7.20
2023-07-03T23:29:52.630Z,8.20
2023-07-03T23:32:20.277Z,8.80
2023-07-03T23:34:48.738Z,8.80
2023-07-03T23:37:17.929Z,7.40
2023-07-03T23:39:45.436Z,7.40
2023-07-03T23:42:14.035Z,7.50
2023-07-03T23:44:41.590Z,8.20
2023-07-03T23:47:08.968Z,7.50
2023-07-03T23:49:36.661Z,8.00
2023-07-03T23:52:05.870Z,7.70
2023-07-03T23:54:33.282Z,8.50
2023-07-03T23:57:00.818Z,7.30
2023-07-03T23:59:28.307Z,7.40
